Pine Forest, Texas
Current Conditions -  °F | °C
As of 2:35 AM on Friday 19 Dec 2014 (Local Time) from KBMT Reporting Station
Thunderstorm Thunderstorm  
Wind Chill: 56°   Ceiling: 500
Heat Index: 56°   Visibility: 10mi
Dew Point: 55°   Wind: 12mph
Humidity: 98%   Direction: 360°N
Pressure: 30.03"   Gusts: NA
Location:  30.1707°N, 94.0082°W
Report Text: KBMT 190835Z AUTO 36010KT 10SM -TSRA OVC005 13/13 A3003 RMK AO2 LTG DSNT ALQS T01320129
Loading
Personal Weather Stations






























Interactive Weather Map New forecast layout! Learn more

10-Day Weather Forecast

Advertisements
Track Severe Weather on mobile